Time;durP1;ratioP1;P1;durP2;ratioP2;P2;SDS_P1;SDS_P2;PMS_P1;PMS_P2;Temp;Humidity;BMP_temperature;BMP_pressure;BME280_temperature;BME280_humidity;BME280_pressure;Samples;Min_cycle;Max_cycle;Signal;HPM_P1;HPM_P2
2022/12/27 00:01:48;;;;;;;2.08;0.70;;;;;;;4.06;93.14;102271.41;5055537;27;97950;-32
2022/12/27 00:04:13;;;;;;;0.52;0.40;;;;;;;4.05;93.16;102277.66;5055957;27;97936;-31
2022/12/27 00:06:39;;;;;;;0.43;0.32;;;;;;;4.01;93.38;102271.44;5055641;27;96727;-31
2022/12/27 00:09:05;;;;;;;4.57;0.32;;;;;;;4.02;92.99;102267.84;5056039;27;96899;-30
2022/12/27 00:11:31;;;;;;;2.40;0.57;;;;;;;4.02;93.03;102270.53;5055388;27;99214;-32
2022/12/27 00:14:04;;;;;;;1.55;0.70;;;;;;;4.06;93.16;102273.19;5055414;27;99225;-31
2022/12/27 00:16:29;;;;;;;0.00;0.00;;;;;;;4.02;93.11;102269.66;5054442;27;96469;-31
2022/12/27 00:18:55;;;;;;;4.35;0.43;;;;;;;4.01;93.51;102274.13;5056262;27;96761;-31
2022/12/27 00:21:21;;;;;;;0.47;0.32;;;;;;;4.02;93.46;102272.31;5055160;27;101407;-31
2022/12/27 00:23:50;;;;;;;1.40;0.75;;;;;;;4.01;93.35;102273.25;5055312;27;97291;-31
2022/12/27 00:26:20;;;;;;;1.70;0.70;;;;;;;4.02;93.58;102277.69;5053911;27;96573;-31
2022/12/27 00:28:46;;;;;;;0.35;0.20;;;;;;;4.01;93.75;102273.25;5054379;27;96759;-31
2022/12/27 00:31:13;;;;;;;0.85;0.40;;;;;;;4.05;93.79;102285.69;5053936;27;100955;-31
2022/12/27 00:33:40;;;;;;;1.30;0.43;;;;;;;4.06;93.49;102278.56;5053290;27;99242;-31
2022/12/27 00:36:08;;;;;;;0.45;0.20;;;;;;;4.09;93.88;102279.41;5054253;27;96538;-31
2022/12/27 00:38:34;;;;;;;2.30;0.63;;;;;;;4.11;93.43;102280.28;5055520;27;96655;-31
2022/12/27 00:41:01;;;;;;;0.22;0.15;;;;;;;4.15;93.87;102276.66;5053872;27;101105;-31
2022/12/27 00:43:26;;;;;;;1.15;0.43;;;;;;;4.17;93.63;102276.63;5054129;27;101011;-30
2022/12/27 00:45:52;;;;;;;2.10;0.55;;;;;;;4.15;93.54;102263.25;5055129;27;96588;-30
2022/12/27 00:48:17;;;;;;;0.00;0.00;;;;;;;4.20;93.84;102265.88;5055257;27;96817;-30
2022/12/27 00:50:43;;;;;;;0.47;0.32;;;;;;;4.20;93.80;102268.56;5054580;27;97910;-31
2022/12/27 00:53:10;;;;;;;0.77;0.45;;;;;;;4.21;93.69;102273.00;5053665;27;101235;-31
2022/12/27 00:55:36;;;;;;;0.28;0.20;;;;;;;4.23;93.31;102284.59;5053882;27;96575;-31
2022/12/27 00:58:02;;;;;;;3.97;0.35;;;;;;;4.20;93.60;102279.28;5053945;27;96653;-31
2022/12/27 01:00:27;;;;;;;2.70;1.02;;;;;;;4.19;93.49;102294.47;5055022;27;97981;-31
2022/12/27 01:02:52;;;;;;;1.02;0.30;;;;;;;4.20;93.82;102296.25;5054890;27;97957;-31
2022/12/27 01:05:18;;;;;;;0.40;0.25;;;;;;;4.22;93.64;102293.56;5054986;27;97210;-31
2022/12/27 01:07:43;;;;;;;1.20;0.73;;;;;;;4.22;93.63;102299.81;5055938;27;96774;-31
2022/12/27 01:10:09;;;;;;;2.22;0.40;;;;;;;4.24;93.85;102295.31;5054809;27;97894;-30
2022/12/27 01:12:35;;;;;;;1.00;0.40;;;;;;;4.21;94.16;102298.00;5053194;27;101011;-31
2022/12/27 01:15:01;;;;;;;2.17;0.82;;;;;;;4.22;94.26;102297.13;5054568;27;96535;-30
2022/12/27 01:17:28;;;;;;;1.52;0.82;;;;;;;4.19;94.01;102298.94;5054953;27;96864;-31
2022/12/27 01:19:53;;;;;;;0.85;0.40;;;;;;;4.12;94.26;102303.47;5053284;27;101349;-30
2022/12/27 01:22:19;;;;;;;0.82;0.52;;;;;;;4.10;94.30;102299.97;5055917;27;97267;-31
2022/12/27 01:24:44;;;;;;;0.57;0.45;;;;;;;4.07;94.54;102308.00;5058681;27;96449;-30
2022/12/27 01:27:09;;;;;;;1.50;0.80;;;;;;;4.08;94.37;102314.28;5058478;27;96862;-31
2022/12/27 01:29:35;;;;;;;0.95;0.60;;;;;;;4.05;94.76;102315.19;5058384;27;97834;-30
2022/12/27 01:32:00;;;;;;;1.35;0.63;;;;;;;4.06;94.54;102325.03;5058022;27;101142;-31
2022/12/27 01:34:25;;;;;;;0.20;0.13;;;;;;;4.07;94.76;102331.25;5058704;27;96635;-30
2022/12/27 01:36:50;;;;;;;0.82;0.50;;;;;;;4.06;95.13;102334.88;5058224;27;96766;-30
2022/12/27 01:39:16;;;;;;;0.95;0.63;;;;;;;4.07;94.79;102348.22;5057391;27;108398;-31
2022/12/27 01:44:39;;;;;;;1.98;0.98;;;;;;;4.06;95.04;102341.09;5058394;27;96632;-32
2022/12/27 01:47:33;;;;;;;0.35;0.35;;;;;;;4.07;94.97;102340.19;5058451;27;96708;-31
2022/12/27 01:50:16;;;;;;;2.10;0.77;;;;;;;4.08;95.31;102336.63;5057120;27;98019;-32
2022/12/27 01:52:50;;;;;;;0.15;0.08;;;;;;;4.09;95.08;102337.50;5057424;27;99132;-31
2022/12/27 01:55:37;;;;;;;1.17;0.63;;;;;;;4.08;95.31;102341.97;5056844;27;96758;-31
2022/12/27 01:58:26;;;;;;;1.48;0.47;;;;;;;4.09;95.46;102357.16;5057206;27;96674;-31
2022/12/27 02:00:53;;;;;;;0.85;0.35;;;;;;;4.09;95.79;102353.59;5056293;27;100800;-30
2022/12/27 02:03:25;;;;;;;0.22;0.15;;;;;;;4.14;95.82;102360.66;5056108;27;101148;-30
2022/12/27 02:05:50;;;;;;;0.50;0.50;;;;;;;4.19;95.55;102358.81;5055985;27;96624;-31
2022/12/27 02:08:34;;;;;;;0.60;0.35;;;;;;;4.24;95.51;102367.75;5057862;27;96802;-31
2022/12/27 02:11:00;;;;;;;0.98;0.73;;;;;;;4.25;95.79;102358.78;5056157;27;100961;-30
2022/12/27 02:13:28;;;;;;;2.20;0.65;;;;;;;4.25;95.71;102361.44;5056154;27;100983;-31
2022/12/27 02:15:53;;;;;;;2.97;0.45;;;;;;;4.29;95.26;102366.78;5056439;27;96632;-31
2022/12/27 02:18:19;;;;;;;1.15;0.65;;;;;;;4.28;95.24;102367.69;5057633;27;96853;-32
2022/12/27 02:21:27;;;;;;;2.78;0.77;;;;;;;4.32;95.47;102370.31;5057154;27;99256;-31
2022/12/27 02:24:02;;;;;;;1.27;0.57;;;;;;;4.35;95.25;102380.13;5057488;27;99449;-31
2022/12/27 02:26:50;;;;;;;0.73;0.40;;;;;;;4.34;95.51;102378.34;5056312;27;96571;-31
2022/12/27 02:29:48;;;;;;;2.58;0.85;;;;;;;4.35;95.48;102383.69;5057513;27;96785;-30
2022/12/27 02:32:40;;;;;;;4.00;0.35;;;;;;;4.38;95.54;102380.97;5054952;27;100983;-31
2022/12/27 02:35:14;;;;;;;6.85;0.40;;;;;;;4.41;95.42;102377.38;5055816;27;101175;-30
2022/12/27 02:37:56;;;;;;;1.23;0.82;;;;;;;4.39;95.52;102377.41;5057865;27;96586;-31
2022/12/27 02:55:08;;;;;;;0.93;0.52;;;;;;;4.46;95.40;102394.31;5055844;27;97038;-30
2022/12/27 02:58:06;;;;;;;0.60;0.47;;;;;;;4.50;95.59;102401.41;5056697;27;97381;-31
2022/12/27 03:04:06;;;;;;;0.00;0.00;;;;;;;4.50;95.33;102392.47;5048046;27;96689;-30
2022/12/27 03:06:40;;;;;;;0.73;0.10;;;;;;;4.51;95.41;102388.91;5056835;27;97916;-31
2022/12/27 03:18:19;;;;;;;1.48;0.40;;;;;;;4.54;95.33;102399.59;5047192;27;98302;-31
2022/12/27 03:26:28;;;;;;;1.48;0.32;;;;;;;4.52;95.26;102415.69;5057112;27;96457;-31
2022/12/27 03:34:38;;;;;;;0.52;0.30;;;;;;;4.54;95.39;102419.25;5057224;27;96720;-31
2022/12/27 03:40:19;;;;;;;0.20;0.20;;;;;;;4.56;95.51;102427.31;5056667;27;96923;-31
2022/12/27 03:43:10;;;;;;;0.73;0.45;;;;;;;4.56;95.46;102421.94;5054743;27;100780;-31
2022/12/27 03:48:46;;;;;;;1.88;0.40;;;;;;;4.57;95.56;102431.75;5057161;27;96742;-31
2022/12/27 03:51:14;;;;;;;6.72;0.38;;;;;;;4.54;95.67;102430.00;5056151;27;97458;-31
2022/12/27 03:53:42;;;;;;;0.45;0.40;;;;;;;4.54;95.54;102430.00;5054416;27;101031;-31
2022/12/27 03:56:08;;;;;;;7.22;0.82;;;;;;;4.53;95.64;102433.59;5054304;27;96553;-30
2022/12/27 03:58:34;;;;;;;0.08;0.03;;;;;;;4.51;95.52;102435.41;5054745;27;96867;-31
2022/12/27 04:01:00;;;;;;;0.55;0.50;;;;;;;4.52;95.70;102431.81;5055956;27;96729;-30
2022/12/27 04:03:25;;;;;;;6.63;0.70;;;;;;;4.50;95.65;102428.25;5055817;27;97944;-30
2022/12/27 04:05:51;;;;;;;3.53;0.95;;;;;;;4.50;95.83;102422.88;5056241;27;96483;-31
2022/12/27 04:35:35;;;;;;;0.47;0.32;;;;;;;4.34;96.15;102430.22;5053036;27;97111;-30
2022/12/27 04:38:00;;;;;;;0.82;0.50;;;;;;;4.30;96.26;102424.91;5055247;27;96515;-30
2022/12/27 04:57:00;;;;;;;0.20;0.20;;;;;;;4.19;96.40;102443.75;5052205;27;97148;-31
2022/12/27 05:02:09;;;;;;;0.65;0.50;;;;;;;4.16;96.40;102447.34;5055580;27;96661;-32
2022/12/27 05:04:36;;;;;;;0.35;0.13;;;;;;;4.19;96.51;102454.47;5054886;27;107824;-31
2022/12/27 05:13:58;;;;;;;0.45;0.20;;;;;;;4.15;96.47;102450.06;5053986;27;100636;-30
2022/12/27 05:15:18;;;;;;;0.10;0.10;;;;;;;4.12;96.79;102453.66;5054593;27;97087;-33
2022/12/27 05:17:44;;;;;;;2.53;0.32;;;;;;;4.10;96.61;102447.44;5053362;27;102469;-30
2022/12/27 05:20:10;;;;;;;2.50;0.30;;;;;;;4.12;96.87;102447.41;5055208;27;96791;-32
2022/12/27 05:25:34;;;;;;;0.35;0.15;;;;;;;4.12;96.27;102452.75;5054837;27;97135;-30
2022/12/27 05:28:00;;;;;;;0.05;0.03;;;;;;;4.12;96.52;102467.06;5053132;27;100996;-30
2022/12/27 05:30:26;;;;;;;0.85;0.40;;;;;;;4.13;96.38;102470.66;5053536;27;96541;-31
2022/12/27 05:32:55;;;;;;;3.13;0.40;;;;;;;4.13;96.74;102465.28;5053588;27;96866;-31
2022/12/27 05:35:20;;;;;;;1.10;0.35;;;;;;;4.14;96.68;102485.81;5054512;27;98033;-30
2022/12/27 05:37:46;;;;;;;0.22;0.22;;;;;;;4.12;96.51;102475.09;5054514;27;97369;-31
2022/12/27 05:40:11;;;;;;;1.13;0.32;;;;;;;4.13;96.68;102479.56;5054079;27;96636;-31
2022/12/27 05:42:37;;;;;;;0.17;0.17;;;;;;;4.13;96.53;102476.00;5054777;27;96755;-30
2022/12/27 05:45:02;;;;;;;0.68;0.50;;;;;;;4.13;96.59;102481.38;5054526;27;97380;-31
2022/12/27 05:47:28;;;;;;;2.15;0.60;;;;;;;4.09;96.68;102471.56;5052989;27;100753;-31
2022/12/27 05:49:54;;;;;;;0.25;0.15;;;;;;;4.08;96.42;102478.72;5054823;27;96615;-30
2022/12/27 05:52:19;;;;;;;3.38;0.55;;;;;;;4.08;96.13;102476.06;5054469;27;96718;-31
2022/12/27 05:54:44;;;;;;;0.55;0.15;;;;;;;4.07;96.31;102484.97;5054392;27;98026;-31
2022/12/27 05:57:10;;;;;;;0.15;0.05;;;;;;;4.07;96.55;102487.66;5054813;27;97344;-30
2022/12/27 05:59:35;;;;;;;0.10;0.10;;;;;;;4.02;96.35;102479.66;5054798;27;96451;-30
2022/12/27 06:02:00;;;;;;;4.03;0.50;;;;;;;3.99;96.28;102481.47;5054482;27;96787;-31
2022/12/27 06:04:26;;;;;;;2.67;0.98;;;;;;;4.01;96.78;102485.03;5053698;27;97863;-30
2022/12/27 06:06:51;;;;;;;0.10;0.10;;;;;;;3.99;97.00;102486.84;5054173;27;97266;-31
2022/12/27 06:09:16;;;;;;;0.10;0.10;;;;;;;3.97;96.69;102484.16;5056166;27;96703;-31
2022/12/27 06:11:42;;;;;;;0.30;0.30;;;;;;;3.97;96.56;102486.84;5057856;27;96535;-32
2022/12/27 06:14:07;;;;;;;0.60;0.25;;;;;;;3.97;97.29;102494.00;5057288;27;99010;-31
2022/12/27 06:16:32;;;;;;;3.22;0.65;;;;;;;3.94;97.00;102491.34;5057684;27;97294;-31
2022/12/27 06:18:58;;;;;;;2.75;0.55;;;;;;;3.96;97.34;102502.97;5057925;27;96452;-30
2022/12/27 06:21:23;;;;;;;0.03;0.03;;;;;;;3.98;97.39;102509.16;5058343;27;96867;-30
2022/12/27 06:23:49;;;;;;;0.17;0.15;;;;;;;3.94;97.15;102518.16;5057000;27;98078;-31
2022/12/27 06:26:20;;;;;;;1.65;0.52;;;;;;;3.95;97.15;102514.56;5057072;27;99069;-30
2022/12/27 06:28:45;;;;;;;0.93;0.70;;;;;;;3.94;97.67;102518.16;5057397;27;96786;-30
2022/12/27 06:31:11;;;;;;;0.00;0.00;;;;;;;3.94;97.61;102524.41;5056233;27;96824;-31
2022/12/27 06:33:36;;;;;;;0.47;0.32;;;;;;;3.91;97.42;102519.06;5057099;27;97798;-32
2022/12/27 06:36:10;;;;;;;2.50;0.70;;;;;;;3.93;97.60;102527.09;5057465;27;97199;-30
2022/12/27 06:38:35;;;;;;;4.28;0.70;;;;;;;3.91;97.45;102528.88;5057613;27;96520;-31
2022/12/27 06:41:06;;;;;;;8.30;0.45;;;;;;;3.90;97.27;102532.47;5057336;27;96782;-33
2022/12/27 06:43:31;;;;;;;1.35;0.63;;;;;;;3.90;97.56;102527.13;5055620;27;101047;-31
2022/12/27 06:45:59;;;;;;;0.73;0.40;;;;;;;3.89;97.81;102525.34;5057297;27;99395;-31
2022/12/27 06:48:25;;;;;;;0.38;0.10;;;;;;;3.89;97.81;102536.06;5055848;27;96673;-31
2022/12/27 06:50:50;;;;;;;2.35;0.85;;;;;;;3.88;97.77;102523.56;5057365;27;97118;-30
2022/12/27 06:53:15;;;;;;;0.40;0.40;;;;;;;3.89;97.71;102525.34;5056206;27;99137;-31
2022/12/27 06:55:41;;;;;;;9.00;0.85;;;;;;;3.85;97.63;102519.09;5056769;27;98969;-31
2022/12/27 06:58:06;;;;;;;1.35;0.30;;;;;;;3.87;98.00;102532.50;5057442;27;96566;-30
2022/12/27 07:00:31;;;;;;;3.45;0.70;;;;;;;3.86;97.64;102530.72;5057297;27;96791;-31
2022/12/27 07:02:57;;;;;;;0.17;0.17;;;;;;;3.89;97.67;102536.06;5056872;27;97917;-31
2022/12/27 07:05:22;;;;;;;1.42;0.43;;;;;;;3.88;97.59;102535.16;5055886;27;110876;-30
2022/12/27 07:07:47;;;;;;;1.95;0.30;;;;;;;3.86;97.79;102536.06;5057197;27;96598;-31
2022/12/27 07:10:13;;;;;;;0.28;0.20;;;;;;;3.86;97.70;102539.63;5057246;27;97964;-31
2022/12/27 07:12:38;;;;;;;0.90;0.43;;;;;;;3.88;97.60;102550.34;5056781;27;97837;-31
2022/12/27 07:15:06;;;;;;;0.55;0.40;;;;;;;3.81;97.54;102533.41;5056381;27;99247;-30
2022/12/27 07:17:35;;;;;;;1.33;0.70;;;;;;;3.83;97.95;102547.69;5054894;27;96570;-31
2022/12/27 07:20:02;;;;;;;2.83;0.65;;;;;;;3.80;97.70;102550.41;5055503;27;96853;-31
2022/12/27 07:22:28;;;;;;;0.55;0.30;;;;;;;3.81;98.01;102545.06;5054573;27;100876;-33
2022/12/27 07:24:53;;;;;;;0.65;0.45;;;;;;;3.83;97.86;102551.25;5056383;27;98167;-30
2022/12/27 07:27:19;;;;;;;0.38;0.20;;;;;;;3.81;98.21;102539.69;5056670;27;96594;-31
2022/12/27 07:29:44;;;;;;;1.92;0.90;;;;;;;3.82;97.97;102549.50;5056987;27;96820;-31
2022/12/27 07:32:09;;;;;;;0.30;0.10;;;;;;;3.81;98.05;102553.09;5056134;27;98584;-32
2022/12/27 07:34:35;;;;;;;12.80;0.35;;;;;;;3.81;97.86;102555.78;5055993;27;107553;-30
2022/12/27 07:37:00;;;;;;;0.77;0.75;;;;;;;3.78;98.08;102555.78;5056604;27;96736;-31
2022/12/27 07:39:25;;;;;;;1.48;0.43;;;;;;;3.77;98.17;102555.78;5056332;27;96892;-31
2022/12/27 07:41:51;;;;;;;0.30;0.20;;;;;;;3.76;97.99;102549.53;5055694;27;97983;-31
2022/12/27 07:44:16;;;;;;;1.20;0.68;;;;;;;3.75;97.92;102550.44;5055912;27;99044;-32
2022/12/27 07:46:41;;;;;;;0.50;0.50;;;;;;;3.74;97.93;102546.00;5056316;27;96667;-30
2022/12/27 07:49:09;;;;;;;0.50;0.25;;;;;;;3.72;98.21;102553.13;5056500;27;96836;-31
2022/12/27 07:51:34;;;;;;;3.10;0.45;;;;;;;3.73;98.06;102551.34;5054443;27;100840;-30
2022/12/27 07:54:00;;;;;;;0.65;0.30;;;;;;;3.70;98.19;102551.38;5056158;27;97318;-31
2022/12/27 07:56:27;;;;;;;1.13;0.65;;;;;;;3.69;98.11;102553.13;5056260;27;96719;-31
2022/12/27 07:58:54;;;;;;;0.38;0.22;;;;;;;3.65;98.30;102553.16;5056671;27;96743;-30
2022/12/27 08:01:20;;;;;;;1.75;0.60;;;;;;;3.68;98.51;102553.16;5054494;27;101170;-31
2022/12/27 08:03:46;;;;;;;0.43;0.25;;;;;;;3.63;98.78;102554.97;5055493;27;99149;-30
2022/12/27 08:06:38;;;;;;;0.68;0.57;;;;;;;3.67;98.27;102556.72;5055637;27;96437;-31
2022/12/27 08:09:05;;;;;;;0.40;0.30;;;;;;;3.67;98.21;102581.75;5052299;27;96887;-30
2022/12/27 08:11:31;;;;;;;0.63;0.40;;;;;;;3.66;98.25;102574.59;5054026;27;101338;-30
2022/12/27 08:13:56;;;;;;;2.38;0.65;;;;;;;3.66;98.46;102584.44;5055683;27;97767;-31
2022/12/27 08:16:24;;;;;;;1.23;0.70;;;;;;;3.65;98.57;102567.47;5055848;27;96545;-31
2022/12/27 08:18:50;;;;;;;0.20;0.20;;;;;;;3.64;98.29;102556.75;5054375;27;96896;-30
2022/12/27 08:21:15;;;;;;;0.98;0.38;;;;;;;3.66;98.44;102557.63;5055167;27;99290;-30
2022/12/27 08:23:41;;;;;;;2.10;0.55;;;;;;;3.67;98.55;102563.00;5055288;27;99110;-31
2022/12/27 08:26:07;;;;;;;0.20;0.03;;;;;;;3.68;98.76;102564.75;5055880;27;96447;-31
2022/12/27 08:28:33;;;;;;;1.77;0.57;;;;;;;3.72;98.48;102557.59;5054211;27;96775;-31
2022/12/27 08:30:59;;;;;;;1.85;0.73;;;;;;;3.73;98.41;102565.63;5053358;27;100793;-31
2022/12/27 08:33:25;;;;;;;1.35;0.45;;;;;;;3.75;98.33;102566.50;5053681;27;100594;-30
2022/12/27 08:35:51;;;;;;;0.60;0.60;;;;;;;3.77;97.74;102574.56;5054263;27;96633;-32
2022/12/27 08:38:17;;;;;;;0.85;0.50;;;;;;;3.74;97.61;102574.56;5054132;27;96765;-31
2022/12/27 08:40:44;;;;;;;0.17;0.17;;;;;;;3.71;98.42;102575.47;5055291;27;104755;-30
2022/12/27 08:43:10;;;;;;;3.97;0.95;;;;;;;3.74;98.10;102572.78;5053510;27;100822;-31
2022/12/27 08:45:37;;;;;;;0.17;0.17;;;;;;;3.77;98.01;102580.81;5054085;27;96630;-30
2022/12/27 08:48:03;;;;;;;0.47;0.38;;;;;;;3.75;98.36;102571.88;5054445;27;96888;-30
2022/12/27 08:50:29;;;;;;;0.57;0.38;;;;;;;3.74;98.49;102567.44;5055178;27;97758;-30
2022/12/27 08:52:59;;;;;;;4.68;0.70;;;;;;;3.77;98.21;102564.72;5053622;27;101377;-30
2022/12/27 08:55:26;;;;;;;0.45;0.30;;;;;;;3.80;98.49;102566.50;5053521;27;96758;-30
2022/12/27 08:57:59;;;;;;;0.20;0.20;;;;;;;3.84;98.29;102568.25;5053591;27;96916;-30
2022/12/27 09:00:26;;;;;;;0.30;0.25;;;;;;;3.87;98.21;102564.69;5053755;27;102145;-31
2022/12/27 09:02:51;;;;;;;0.75;0.63;;;;;;;3.89;98.25;102573.59;5053820;27;99860;-31
2022/12/27 09:05:18;;;;;;;0.80;0.73;;;;;;;3.89;98.28;102578.97;5055039;27;96619;-30
2022/12/27 09:07:44;;;;;;;1.02;0.80;;;;;;;3.90;98.31;102572.69;5055272;27;96744;-31
2022/12/27 09:10:09;;;;;;;1.75;0.57;;;;;;;3.95;97.95;102587.84;5054847;27;97824;-31
2022/12/27 09:12:34;;;;;;;2.58;0.30;;;;;;;3.96;98.09;102581.59;5054881;27;98839;-30
2022/12/27 09:15:00;;;;;;;3.47;1.15;;;;;;;3.98;97.94;102586.91;5054938;27;96474;-32
2022/12/27 09:17:25;;;;;;;0.65;0.65;;;;;;;4.03;97.96;102583.34;5054882;27;96855;-31
2022/12/27 09:19:52;;;;;;;1.50;0.98;;;;;;;4.06;97.56;102585.09;5054279;27;97865;-31
2022/12/27 09:22:17;;;;;;;2.22;0.70;;;;;;;4.07;98.01;102583.31;5052607;27;100779;-31
2022/12/27 09:24:42;;;;;;;1.70;0.63;;;;;;;4.11;98.36;102596.69;5055345;27;96539;-30
2022/12/27 09:27:08;;;;;;;2.78;0.90;;;;;;;4.12;97.53;102592.19;5054751;27;96906;-31
2022/12/27 09:29:33;;;;;;;0.32;0.22;;;;;;;4.15;98.04;102601.13;5054875;27;97307;-30
2022/12/27 09:31:58;;;;;;;0.75;0.52;;;;;;;4.17;97.94;102607.38;5054487;27;99063;-32
2022/12/27 09:34:23;;;;;;;3.88;1.20;;;;;;;4.22;97.92;102602.88;5054669;27;96899;-31
2022/12/27 09:36:49;;;;;;;5.03;1.50;;;;;;;4.22;97.50;102594.81;5055100;27;96810;-32
2022/12/27 09:39:16;;;;;;;1.25;0.60;;;;;;;4.26;98.07;102591.19;5054203;27;102988;-30
2022/12/27 09:41:50;;;;;;;1.73;1.10;;;;;;;4.32;98.20;102584.91;5054249;27;97866;-31
2022/12/27 09:44:24;;;;;;;0.63;0.50;;;;;;;4.41;97.88;102583.94;5056303;27;96547;-31
2022/12/27 09:47:11;;;;;;;0.80;0.57;;;;;;;4.45;97.56;102589.25;5056817;27;96758;-31
2022/12/27 09:49:40;;;;;;;1.58;0.82;;;;;;;4.44;97.44;102583.94;5058134;27;98018;-31
2022/12/27 09:52:22;;;;;;;2.83;1.23;;;;;;;4.50;97.34;102597.28;5057670;27;97263;-31
2022/12/27 09:54:57;;;;;;;1.95;1.15;;;;;;;4.55;97.22;102595.44;5056906;27;96765;-30
2022/12/27 09:57:29;;;;;;;1.27;1.17;;;;;;;4.61;97.30;102592.72;5056963;27;96641;-31
2022/12/27 09:59:57;;;;;;;;;;;;;;;4.68;97.15;102607.88;5056920;27;100988;-30
2022/12/27 10:02:25;;;;;;;0.40;0.35;;;;;;;4.74;96.51;102597.97;5058230;27;97720;-31
2022/12/27 10:04:52;;;;;;;4.85;1.08;;;;;;;4.82;96.78;102588.06;5058096;27;96584;-31
2022/12/27 10:07:37;;;;;;;2.20;0.88;;;;;;;4.95;96.56;102592.41;5056525;27;96840;-30
2022/12/27 10:10:21;;;;;;;1.52;0.80;;;;;;;5.05;96.38;102598.56;5055887;27;100991;-30
2022/12/27 10:13:04;;;;;;;0.70;0.65;;;;;;;5.09;96.17;102601.22;5057452;27;97327;-31
2022/12/27 10:16:08;;;;;;;1.90;0.82;;;;;;;5.14;96.22;102605.66;5058095;27;96541;-30
2022/12/27 10:18:58;;;;;;;0.65;0.65;;;;;;;5.09;95.91;102611.94;4975059;28;96629;-31
2022/12/27 10:21:26;;;;;;;2.13;1.25;;;;;;;5.11;95.99;102601.19;4958266;28;101019;-32
2022/12/27 10:23:58;;;;;;;1.08;0.47;;;;;;;5.18;95.95;102602.03;5019842;27;100928;-31
2022/12/27 10:26:24;;;;;;;0.70;0.65;;;;;;;5.22;96.01;102602.00;5057853;27;96691;-30
2022/12/27 10:29:16;;;;;;;1.90;1.08;;;;;;;5.34;96.10;102598.28;5056707;27;96933;-30
2022/12/27 10:31:42;;;;;;;1.05;0.75;;;;;;;5.30;95.84;102600.09;5055919;27;100922;-31
2022/12/27 10:34:12;;;;;;;1.80;1.30;;;;;;;5.26;95.52;102597.44;5055721;27;101109;-32
2022/12/27 10:36:39;;;;;;;4.65;1.52;;;;;;;5.17;95.69;102594.88;5056990;27;97018;-30
2022/12/27 10:39:15;;;;;;;1.38;0.82;;;;;;;5.13;96.15;102595.81;5057443;27;96717;-31
2022/12/27 10:41:59;;;;;;;2.38;1.73;;;;;;;5.10;96.23;102600.31;5055755;27;101114;-30
2022/12/27 10:44:25;;;;;;;1.48;1.10;;;;;;;5.08;96.39;102599.44;5057071;27;98856;-31
2022/12/27 10:46:54;;;;;;;2.90;1.13;;;;;;;5.05;96.54;102591.44;5057539;27;97064;-31
2022/12/27 10:49:23;;;;;;;7.47;1.30;;;;;;;5.03;96.77;102584.25;5055814;27;96789;-30
2022/12/27 10:51:51;;;;;;;1.92;0.98;;;;;;;5.00;96.73;102592.34;5055631;27;100861;-31
2022/12/27 10:54:28;;;;;;;1.55;1.02;;;;;;;4.97;96.95;102595.09;5055809;27;100664;-31
2022/12/27 10:56:56;;;;;;;1.15;0.75;;;;;;;4.94;96.96;102598.69;5055774;27;96733;-30
2022/12/27 10:59:24;;;;;;;1.35;0.65;;;;;;;4.94;97.19;102597.81;5055793;27;96806;-31
2022/12/27 11:02:17;;;;;;;1.45;0.98;;;;;;;4.94;97.29;102590.63;5056195;27;97981;-31
2022/12/27 11:05:02;;;;;;;1.52;0.88;;;;;;;5.00;97.39;102595.03;5047853;27;99261;-30
2022/12/27 11:07:33;;;;;;;1.58;1.00;;;;;;;5.09;97.06;102601.22;5056559;27;96577;-30
2022/12/27 11:10:16;;;;;;;0.93;0.75;;;;;;;5.37;96.86;102597.34;5055598;27;96927;-31
2022/12/27 11:12:54;;;;;;;2.03;1.10;;;;;;;5.87;95.37;102602.06;5054516;27;99396;-30
2022/12/27 11:15:20;;;;;;;0.82;0.75;;;;;;;5.86;94.54;102602.97;5056258;27;99022;-31
2022/12/27 11:17:46;;;;;;;3.58;1.20;;;;;;;5.81;93.95;102598.56;5057118;27;96563;-31
2022/12/27 11:20:22;;;;;;;2.55;1.20;;;;;;;5.80;94.26;102607.56;5057366;27;96801;-31
2022/12/27 11:23:00;;;;;;;1.25;1.00;;;;;;;6.09;94.09;102601.81;5054332;27;100715;-30
2022/12/27 11:25:27;;;;;;;1.63;1.20;;;;;;;6.26;93.31;102590.78;5054905;27;101015;-31
2022/12/27 11:27:57;;;;;;;0.98;0.57;;;;;;;6.28;93.10;102581.78;5054818;27;96813;-31
2022/12/27 11:30:30;;;;;;;2.28;1.10;;;;;;;6.19;93.26;102587.28;5055009;27;96823;-31
2022/12/27 11:33:19;;;;;;;7.60;1.40;;;;;;;6.12;93.71;102578.41;5051937;27;102426;-31
2022/12/27 11:35:49;;;;;;;1.63;1.25;;;;;;;6.05;94.16;102584.81;5052371;27;101488;-35
2022/12/27 11:38:23;;;;;;;1.98;1.38;;;;;;;6.00;94.69;102580.41;5052905;27;96764;-33
2022/12/27 11:41:14;;;;;;;1.05;0.80;;;;;;;6.01;94.77;102579.53;5052945;27;96982;-30
2022/12/27 11:44:07;;;;;;;0.98;0.85;;;;;;;5.95;95.08;102573.28;5052710;27;100958;-30
2022/12/27 11:46:49;;;;;;;4.28;1.50;;;;;;;5.98;95.41;102574.16;5053539;27;100782;-31
2022/12/27 11:49:27;;;;;;;;;;;;;;;6.02;95.07;102578.59;5057008;27;96506;-30
2022/12/27 11:52:27;;;;;;;0.93;0.70;;;;;;;6.14;95.05;102563.16;5054983;27;96646;-30
2022/12/27 11:55:14;;;;;;;1.60;1.10;;;;;;;6.29;95.15;102567.41;5053808;27;99594;-31
2022/12/27 11:57:59;;;;;;;0.68;0.50;;;;;;;6.50;94.46;102562.59;5055729;27;99153;-30
2022/12/27 12:00:32;;;;;;;1.58;0.88;;;;;;;6.56;93.78;102554.41;5056113;27;96477;-31
2022/12/27 12:03:12;;;;;;;1.67;0.75;;;;;;;6.58;93.52;102548.09;5054941;27;96800;-30
2022/12/27 12:05:40;;;;;;;1.27;0.98;;;;;;;6.55;93.47;102541.84;5053953;27;101514;-32
2022/12/27 12:08:25;;;;;;;1.52;0.90;;;;;;;6.43;93.75;102544.75;5055632;27;99249;-30
2022/12/27 12:11:09;;;;;;;0.88;0.52;;;;;;;6.40;94.13;102544.81;5056188;27;96583;-30
2022/12/27 12:13:43;;;;;;;1.15;0.82;;;;;;;6.40;94.45;102537.63;5056329;27;96832;-30
2022/12/27 12:16:15;;;;;;;1.63;0.73;;;;;;;6.48;94.45;102532.09;5055979;27;97927;-30
2022/12/27 12:18:46;;;;;;;1.70;1.10;;;;;;;6.70;94.09;102517.34;5055373;27;99342;-31
2022/12/27 12:21:35;;;;;;;2.08;1.02;;;;;;;6.97;93.11;102524.00;5055437;27;96657;-31
2022/12/27 12:24:32;;;;;;;1.65;1.02;;;;;;;7.06;92.28;102514.88;5053764;27;96905;-30
2022/12/27 12:27:08;;;;;;;1.08;0.82;;;;;;;7.17;91.74;102504.75;5056042;27;97353;-30
2022/12/27 12:30:11;;;;;;;2.03;0.90;;;;;;;7.30;91.10;102501.81;5055662;27;98622;-30
2022/12/27 12:32:57;;;;;;;1.65;1.02;;;;;;;7.48;90.40;102482.53;5055641;27;96427;-30
2022/12/27 12:35:52;;;;;;;1.65;1.25;;;;;;;7.28;90.41;102476.69;5054402;27;96632;-30
2022/12/27 12:38:24;;;;;;;1.90;0.85;;;;;;;7.12;91.19;102490.47;5043012;27;100930;-30
2022/12/27 12:41:08;;;;;;;0.75;0.68;;;;;;;7.23;91.02;102479.50;5054297;27;100612;-30
2022/12/27 12:43:51;;;;;;;2.13;1.08;;;;;;;7.32;90.81;102481.13;5055747;27;96706;-30
2022/12/27 12:46:35;;;;;;;4.10;1.42;;;;;;;7.23;90.73;102466.91;5055497;27;96844;-30
2022/12/27 12:49:22;;;;;;;0.70;0.70;;;;;;;7.00;91.31;102469.19;5054617;27;97389;-30
2022/12/27 12:51:53;;;;;;;1.88;1.00;;;;;;;6.85;92.28;102472.19;5055425;27;97827;-30
2022/12/27 12:54:28;;;;;;;1.80;1.20;;;;;;;6.72;92.73;102469.75;5055636;27;96755;-30
2022/12/27 12:57:09;;;;;;;2.20;0.93;;;;;;;6.66;93.33;102458.22;5055885;27;96557;-30
2022/12/27 12:59:53;;;;;;;1.13;0.75;;;;;;;6.57;93.63;102464.63;5055022;27;98072;-30
2022/12/27 13:02:33;;;;;;;1.30;1.13;;;;;;;6.54;94.29;102457.50;5053568;27;100770;-30
2022/12/27 13:05:22;;;;;;;1.48;0.73;;;;;;;6.49;94.33;102454.03;5053775;27;96703;-30
2022/12/27 13:08:14;;;;;;;4.72;1.40;;;;;;;6.43;94.67;102443.34;5054019;27;96855;-32
2022/12/27 13:11:04;;;;;;;0.35;0.35;;;;;;;6.45;95.04;102446.91;5053539;27;101419;-31
2022/12/27 13:13:48;;;;;;;2.25;1.27;;;;;;;6.44;94.83;102436.19;5054586;27;98648;-30
2022/12/27 13:16:49;;;;;;;2.85;1.10;;;;;;;6.41;94.98;102428.16;5054285;27;96761;-32
2022/12/27 13:19:42;;;;;;;4.53;1.17;;;;;;;6.41;94.85;102429.03;5057129;27;96681;-31
2022/12/27 13:22:22;;;;;;;1.42;0.93;;;;;;;6.41;95.45;102426.34;5058008;27;98062;-31
2022/12/27 13:25:05;;;;;;;1.80;1.08;;;;;;;6.39;95.17;102420.13;5058546;27;97851;-30
2022/12/27 13:27:40;;;;;;;0.68;0.68;;;;;;;6.41;95.16;102418.28;5057381;27;96618;-30
2022/12/27 13:30:21;;;;;;;2.78;1.40;;;;;;;6.38;94.53;102415.66;5057260;27;96712;-30
2022/12/27 13:33:15;;;;;;;1.85;1.02;;;;;;;6.37;94.84;102409.38;5056423;27;100930;-30
2022/12/27 13:36:02;;;;;;;1.48;1.13;;;;;;;6.33;94.24;102402.28;5040334;27;100895;-30